Time;durP1;ratioP1;P1;durP2;ratioP2;P2;SDS_P1;SDS_P2;PMS_P1;PMS_P2;Temp;Humidity;BMP_temperature;BMP_pressure;BME280_temperature;BME280_humidity;BME280_pressure;Samples;Min_cycle;Max_cycle;Signal;HPM_P1;HPM_P2
2024/01/30 00:01:42;;;;;;;16.70;11.70;;;4.00;99.90;;;;;;5115901;28;20200;-70
2024/01/30 00:04:07;;;;;;;14.50;10.83;;;4.00;99.90;;;;;;5115978;28;20164;-70
2024/01/30 00:06:33;;;;;;;13.50;11.57;;;4.00;99.90;;;;;;5115859;28;20664;-70
2024/01/30 00:08:59;;;;;;;13.97;10.73;;;4.00;99.90;;;;;;5115949;28;20633;-70
2024/01/30 00:11:25;;;;;;;12.67;11.07;;;4.00;99.90;;;;;;5113933;28;20685;-70
2024/01/30 00:13:52;;;;;;;12.70;10.17;;;4.00;99.90;;;;;;5115709;28;20183;-70
2024/01/30 00:16:21;;;;;;;10.73;9.60;;;4.00;99.90;;;;;;5115533;28;20566;-70
2024/01/30 00:18:48;;;;;;;18.17;11.53;;;4.00;99.90;;;;;;5116033;28;20163;-70
2024/01/30 00:21:14;;;;;;;11.57;10.33;;;4.00;99.90;;;;;;5115176;28;20632;-70
2024/01/30 00:23:39;;;;;;;11.87;10.67;;;3.90;99.90;;;;;;5114306;28;20196;-70
2024/01/30 00:26:06;;;;;;;13.03;10.53;;;3.90;99.90;;;;;;5116049;28;20518;-70
2024/01/30 00:28:31;;;;;;;13.20;10.57;;;4.00;99.90;;;;;;5115472;28;20704;-70
2024/01/30 00:30:57;;;;;;;11.10;9.87;;;4.00;99.90;;;;;;5113995;28;20299;-70
2024/01/30 00:33:23;;;;;;;12.13;10.07;;;4.00;99.90;;;;;;5115174;28;20272;-70
2024/01/30 00:35:49;;;;;;;12.50;10.67;;;4.00;99.90;;;;;;5114815;28;20184;-70
2024/01/30 00:38:14;;;;;;;11.87;10.13;;;4.00;99.90;;;;;;5114269;28;20176;-70
2024/01/30 00:40:40;;;;;;;10.70;9.60;;;3.90;99.90;;;;;;5114937;27;20266;-70
2024/01/30 00:43:06;;;;;;;13.73;9.97;;;3.90;99.90;;;;;;5115309;28;20540;-69
2024/01/30 00:45:32;;;;;;;12.57;10.40;;;3.80;99.90;;;;;;5113861;28;20227;-70
2024/01/30 00:47:57;;;;;;;14.33;10.13;;;3.70;99.90;;;;;;5114448;28;20177;-70
2024/01/30 00:50:23;;;;;;;12.70;10.13;;;3.70;99.90;;;;;;5114659;28;20629;-70
2024/01/30 00:52:49;;;;;;;12.93;10.33;;;3.70;99.90;;;;;;5114974;28;20552;-70
2024/01/30 00:55:15;;;;;;;11.93;9.90;;;3.60;99.90;;;;;;5114014;28;20228;-70
2024/01/30 00:57:40;;;;;;;12.50;10.20;;;3.70;99.90;;;;;;5115123;28;20269;-70
2024/01/30 01:00:08;;;;;;;15.43;11.37;;;3.70;99.90;;;;;;5114832;28;20592;-70
2024/01/30 01:02:35;;;;;;;12.67;10.70;;;3.60;99.90;;;;;;5114641;28;20194;-70
2024/01/30 01:05:01;;;;;;;13.93;10.90;;;3.60;99.90;;;;;;5113335;28;20222;-70
2024/01/30 01:07:27;;;;;;;11.87;10.33;;;3.60;99.90;;;;;;5114633;28;20583;-69
2024/01/30 01:09:53;;;;;;;14.13;10.50;;;3.60;99.90;;;;;;5113969;27;20196;-70
2024/01/30 01:12:19;;;;;;;12.97;10.60;;;3.60;99.90;;;;;;5113935;27;20191;-70
2024/01/30 01:14:45;;;;;;;13.23;10.43;;;3.70;99.90;;;;;;5114563;28;20645;-70
2024/01/30 01:17:12;;;;;;;16.57;12.40;;;3.70;99.90;;;;;;5112695;28;20262;-70
2024/01/30 01:19:37;;;;;;;15.40;11.77;;;3.60;99.90;;;;;;5113825;28;20168;-70
2024/01/30 01:22:03;;;;;;;13.03;11.13;;;3.60;99.90;;;;;;5113992;28;20296;-70
2024/01/30 01:24:32;;;;;;;14.77;11.87;;;3.50;99.90;;;;;;5114780;28;20172;-70
2024/01/30 01:26:58;;;;;;;16.77;12.03;;;3.40;99.90;;;;;;5113069;28;20259;-69
2024/01/30 01:29:30;;;;;;;13.47;11.50;;;3.50;99.90;;;;;;5113194;28;20180;-70
2024/01/30 01:31:56;;;;;;;16.70;12.30;;;3.50;99.90;;;;;;5114325;28;20196;-70
2024/01/30 01:34:23;;;;;;;14.97;11.83;;;3.50;99.90;;;;;;5114521;28;20172;-70
2024/01/30 01:36:49;;;;;;;14.97;11.67;;;3.50;99.90;;;;;;5114943;28;20176;-70
2024/01/30 01:39:15;;;;;;;12.33;11.00;;;3.50;99.90;;;;;;5112421;28;20172;-68
2024/01/30 01:41:41;;;;;;;13.93;11.27;;;3.50;99.90;;;;;;5113569;28;20661;-70
2024/01/30 01:44:08;;;;;;;15.93;11.20;;;3.50;99.90;;;;;;5114523;28;20241;-70
2024/01/30 01:46:34;;;;;;;15.70;11.80;;;3.40;99.90;;;;;;5114529;28;20629;-70
2024/01/30 01:49:05;;;;;;;17.50;11.67;;;3.40;99.90;;;;;;5114763;28;20180;-70
2024/01/30 01:51:33;;;;;;;14.73;11.60;;;3.40;99.90;;;;;;5113933;28;20666;-70
2024/01/30 01:54:05;;;;;;;14.87;11.50;;;3.30;99.90;;;;;;5113919;28;20190;-70
2024/01/30 01:56:33;;;;;;;14.07;11.97;;;3.30;99.90;;;;;;5114594;28;20169;-70
2024/01/30 01:59:07;;;;;;;15.47;11.70;;;3.20;99.90;;;;;;5113584;28;20182;-70
2024/01/30 02:01:33;;;;;;;12.87;11.23;;;3.20;99.90;;;;;;5113493;28;20218;-70
2024/01/30 02:04:00;;;;;;;13.70;11.53;;;3.20;99.90;;;;;;5114268;28;20295;-70
2024/01/30 02:06:27;;;;;;;14.77;11.30;;;3.20;99.90;;;;;;5114441;28;20215;-70
2024/01/30 02:08:53;;;;;;;13.13;11.73;;;3.10;99.90;;;;;;5115843;28;20264;-69
2024/01/30 02:11:20;;;;;;;17.50;11.50;;;3.10;99.90;;;;;;5119454;28;20231;-69
2024/01/30 02:13:46;;;;;;;15.87;11.90;;;3.10;99.90;;;;;;5118739;28;20659;-69
2024/01/30 02:16:12;;;;;;;14.53;11.57;;;3.10;99.90;;;;;;5118152;28;20247;-69
2024/01/30 02:18:43;;;;;;;13.43;11.90;;;3.10;99.90;;;;;;5117347;28;20159;-69
2024/01/30 02:21:09;;;;;;;14.93;11.17;;;3.10;99.90;;;;;;5115667;28;20610;-70
2024/01/30 02:23:34;;;;;;;17.20;11.73;;;3.10;99.90;;;;;;5117245;28;20185;-70
2024/01/30 02:26:00;;;;;;;13.20;11.10;;;3.10;99.90;;;;;;5115828;28;20271;-70
2024/01/30 02:28:27;;;;;;;14.43;11.10;;;3.10;99.90;;;;;;5115809;28;20184;-70
2024/01/30 02:30:53;;;;;;;18.00;11.60;;;3.10;99.90;;;;;;5116822;28;20667;-70
2024/01/30 02:33:19;;;;;;;15.93;12.17;;;3.10;99.90;;;;;;5117143;28;20172;-70
2024/01/30 02:35:45;;;;;;;13.30;11.87;;;3.10;99.90;;;;;;5116806;28;20221;-70
2024/01/30 02:38:11;;;;;;;15.33;12.37;;;3.00;99.90;;;;;;5117585;28;20537;-70
2024/01/30 02:40:37;;;;;;;12.87;11.27;;;3.10;99.90;;;;;;5117644;28;20305;-70
2024/01/30 02:43:03;;;;;;;14.43;11.60;;;3.00;99.90;;;;;;5116751;28;20204;-70
2024/01/30 02:45:29;;;;;;;14.50;11.77;;;3.00;99.90;;;;;;5117434;28;20534;-70
2024/01/30 02:47:55;;;;;;;16.13;12.13;;;3.00;99.90;;;;;;5117520;28;20247;-70
2024/01/30 02:50:21;;;;;;;12.43;11.13;;;3.00;99.90;;;;;;5116781;28;20204;-70
2024/01/30 02:52:47;;;;;;;13.43;11.33;;;3.00;99.90;;;;;;5116393;28;20206;-70
2024/01/30 02:55:12;;;;;;;16.07;12.43;;;3.00;99.90;;;;;;5117805;28;20214;-70
2024/01/30 02:57:39;;;;;;;13.03;11.20;;;3.00;99.90;;;;;;5116659;28;20195;-70
2024/01/30 03:00:06;;;;;;;15.03;12.03;;;3.00;99.90;;;;;;5115386;28;20199;-70
2024/01/30 03:02:32;;;;;;;16.23;11.87;;;2.90;99.90;;;;;;5115142;28;20208;-70
2024/01/30 03:04:59;;;;;;;15.60;12.00;;;2.90;99.90;;;;;;5116549;28;20179;-70
2024/01/30 03:07:25;;;;;;;20.10;12.00;;;2.90;99.90;;;;;;5116746;28;20176;-70
2024/01/30 03:09:51;;;;;;;17.40;12.83;;;2.90;99.90;;;;;;5114943;28;20176;-70
2024/01/30 03:12:16;;;;;;;13.87;11.63;;;2.80;99.90;;;;;;5115759;28;20195;-70
2024/01/30 03:14:42;;;;;;;16.37;12.50;;;2.90;99.90;;;;;;5116522;28;20536;-70
2024/01/30 03:17:08;;;;;;;14.50;12.20;;;2.90;99.90;;;;;;5116749;28;20165;-70
2024/01/30 03:19:34;;;;;;;17.17;12.67;;;2.90;99.90;;;;;;5116116;28;20702;-69
2024/01/30 03:22:00;;;;;;;17.53;12.37;;;2.90;99.90;;;;;;5114575;28;20197;-70
2024/01/30 03:24:25;;;;;;;14.87;12.03;;;2.90;99.90;;;;;;5114821;28;20656;-70
2024/01/30 03:26:51;;;;;;;16.37;12.53;;;2.90;99.90;;;;;;5116180;28;20178;-70
2024/01/30 03:29:17;;;;;;;17.03;12.07;;;2.90;99.90;;;;;;5116240;28;20195;-70
2024/01/30 03:31:43;;;;;;;15.60;12.10;;;2.90;99.90;;;;;;5116043;28;20214;-70
2024/01/30 03:34:08;;;;;;;16.63;12.53;;;2.90;99.90;;;;;;5116567;28;20164;-70
2024/01/30 03:36:34;;;;;;;17.67;13.23;;;2.90;99.90;;;;;;5116094;28;20175;-70
2024/01/30 03:39:01;;;;;;;16.73;12.97;;;3.00;99.90;;;;;;5116724;28;20519;-70
2024/01/30 03:41:27;;;;;;;16.57;13.87;;;3.00;99.90;;;;;;5116368;28;20267;-70
2024/01/30 03:43:52;;;;;;;15.03;12.53;;;3.10;99.90;;;;;;5115076;28;20269;-70
2024/01/30 03:46:18;;;;;;;18.87;13.50;;;3.10;99.90;;;;;;5116575;28;20230;-70
2024/01/30 03:48:45;;;;;;;15.30;12.90;;;3.00;99.90;;;;;;5115250;28;20204;-70
2024/01/30 03:51:15;;;;;;;16.77;13.27;;;3.00;99.90;;;;;;5116058;28;20279;-70
2024/01/30 03:53:46;;;;;;;16.03;13.37;;;3.00;99.90;;;;;;5116489;28;20165;-70
2024/01/30 03:56:13;;;;;;;18.10;13.20;;;3.00;99.90;;;;;;5114171;28;20172;-70
2024/01/30 03:58:39;;;;;;;17.90;14.00;;;3.00;99.90;;;;;;5115454;28;20299;-70
2024/01/30 04:01:05;;;;;;;16.53;13.07;;;3.00;99.90;;;;;;5115233;28;20684;-69
2024/01/30 04:03:30;;;;;;;16.23;12.90;;;3.00;99.90;;;;;;5115132;28;20186;-70
2024/01/30 04:05:56;;;;;;;16.70;13.50;;;3.00;99.90;;;;;;5114948;27;20576;-70
2024/01/30 04:08:22;;;;;;;16.80;13.03;;;2.90;99.90;;;;;;5115102;28;20181;-68
2024/01/30 04:10:48;;;;;;;16.83;13.10;;;3.00;99.90;;;;;;5115566;28;20283;-70
2024/01/30 04:13:14;;;;;;;17.17;12.27;;;3.00;99.90;;;;;;5113700;28;20519;-70
2024/01/30 04:15:40;;;;;;;16.47;13.70;;;3.00;99.90;;;;;;5113732;28;20183;-70
2024/01/30 04:18:06;;;;;;;16.47;12.27;;;2.90;99.90;;;;;;5115923;28;20176;-70
2024/01/30 04:20:32;;;;;;;17.33;13.47;;;2.90;99.90;;;;;;5114513;28;20262;-70
2024/01/30 04:22:57;;;;;;;14.03;12.53;;;2.90;99.90;;;;;;5115465;28;20611;-69
2024/01/30 04:25:23;;;;;;;14.37;12.50;;;2.90;99.90;;;;;;5114839;28;20176;-70
2024/01/30 04:27:49;;;;;;;17.63;13.23;;;2.80;99.90;;;;;;5113881;28;20176;-70
2024/01/30 04:30:15;;;;;;;15.90;12.83;;;2.90;99.90;;;;;;5113112;28;20683;-70
2024/01/30 04:32:41;;;;;;;15.40;13.03;;;2.90;99.90;;;;;;5114168;28;20168;-70
2024/01/30 04:35:07;;;;;;;17.40;13.07;;;2.90;99.90;;;;;;5115431;28;20177;-70
2024/01/30 04:37:33;;;;;;;19.07;13.30;;;2.80;99.90;;;;;;5115310;28;20165;-69
2024/01/30 04:39:58;;;;;;;19.30;13.27;;;2.70;99.90;;;;;;5115219;28;20183;-70
2024/01/30 04:42:24;;;;;;;18.70;12.37;;;2.80;99.90;;;;;;5114948;28;20283;-70
2024/01/30 04:44:50;;;;;;;14.10;12.53;;;2.70;99.90;;;;;;5113268;28;20223;-70
2024/01/30 04:47:16;;;;;;;15.43;12.70;;;2.70;99.90;;;;;;5115484;28;20172;-70
2024/01/30 04:49:42;;;;;;;13.20;11.80;;;2.70;99.90;;;;;;5113684;28;20188;-69
2024/01/30 04:52:08;;;;;;;16.97;13.30;;;2.70;99.90;;;;;;5114993;28;20196;-70
2024/01/30 04:54:35;;;;;;;17.13;12.97;;;2.70;99.90;;;;;;5114303;28;20514;-69
2024/01/30 04:57:02;;;;;;;16.60;13.10;;;2.70;99.90;;;;;;5114912;28;20197;-69
2024/01/30 04:59:28;;;;;;;14.03;12.60;;;2.60;99.90;;;;;;5113060;28;20176;-69
2024/01/30 05:01:54;;;;;;;17.00;12.53;;;2.70;99.90;;;;;;5114345;28;20272;-68
2024/01/30 05:04:21;;;;;;;15.33;12.73;;;2.70;99.90;;;;;;5114808;28;20241;-68
2024/01/30 05:06:47;;;;;;;15.73;12.97;;;2.70;99.90;;;;;;5114019;28;20171;-69
2024/01/30 05:09:13;;;;;;;14.93;12.50;;;2.60;99.90;;;;;;5114363;28;20176;-69
2024/01/30 05:11:42;;;;;;;16.43;13.17;;;2.60;99.90;;;;;;5114144;28;20581;-69
2024/01/30 05:14:11;;;;;;;14.87;12.67;;;2.60;99.90;;;;;;5114088;28;20179;-69
2024/01/30 05:16:37;;;;;;;18.47;11.97;;;2.60;99.90;;;;;;5114046;28;20713;-69
2024/01/30 05:19:03;;;;;;;16.90;12.47;;;2.60;99.90;;;;;;5114704;28;20168;-68
2024/01/30 05:21:29;;;;;;;14.30;11.70;;;2.60;99.90;;;;;;5114457;28;20219;-69
2024/01/30 05:23:54;;;;;;;16.53;12.50;;;2.60;99.90;;;;;;5113883;28;20270;-68
2024/01/30 05:26:22;;;;;;;15.13;12.70;;;2.60;99.90;;;;;;5114747;28;20203;-69
2024/01/30 05:28:48;;;;;;;17.90;14.07;;;2.60;99.90;;;;;;5114101;27;20181;-69
2024/01/30 05:31:14;;;;;;;15.47;12.50;;;2.60;99.90;;;;;;5113915;28;20257;-69
2024/01/30 05:33:40;;;;;;;18.83;12.70;;;2.60;99.90;;;;;;5114571;28;20653;-69
2024/01/30 05:36:06;;;;;;;14.83;12.70;;;2.50;99.90;;;;;;5114264;28;20160;-69
2024/01/30 05:38:32;;;;;;;16.80;12.57;;;2.60;99.90;;;;;;5113232;28;20172;-69
2024/01/30 05:40:58;;;;;;;15.60;12.97;;;2.50;99.90;;;;;;5114320;28;20553;-69
2024/01/30 05:43:24;;;;;;;14.10;12.03;;;2.50;99.90;;;;;;5113087;28;20191;-69
2024/01/30 05:45:50;;;;;;;15.07;12.73;;;2.50;99.90;;;;;;5118029;28;20180;-69
2024/01/30 05:48:16;;;;;;;14.70;13.07;;;2.40;99.90;;;;;;5117449;28;20195;-69
2024/01/30 05:50:42;;;;;;;15.33;13.53;;;2.40;99.90;;;;;;5118360;28;20687;-69
2024/01/30 05:53:08;;;;;;;14.13;12.63;;;2.40;99.90;;;;;;5118027;28;20243;-69
2024/01/30 05:55:33;;;;;;;15.27;13.47;;;2.50;99.90;;;;;;5117678;28;20222;-69
2024/01/30 05:57:59;;;;;;;16.07;13.27;;;2.40;99.90;;;;;;5117718;27;20172;-69
2024/01/30 06:00:25;;;;;;;15.60;13.33;;;2.40;99.90;;;;;;5116304;28;20172;-69
2024/01/30 06:02:51;;;;;;;18.47;14.07;;;2.50;99.90;;;;;;5117558;28;20568;-69
2024/01/30 06:05:16;;;;;;;16.57;13.73;;;2.40;99.90;;;;;;5117349;28;20215;-69
2024/01/30 06:07:42;;;;;;;17.53;13.20;;;2.40;99.90;;;;;;5116253;28;20172;-69
2024/01/30 06:10:08;;;;;;;15.13;12.73;;;2.40;99.90;;;;;;5116260;28;20203;-69
2024/01/30 06:12:35;;;;;;;16.43;13.63;;;2.40;99.90;;;;;;5118012;28;20220;-69
2024/01/30 06:15:01;;;;;;;18.60;13.63;;;2.40;99.90;;;;;;5117986;28;20668;-69
2024/01/30 06:17:27;;;;;;;18.33;13.77;;;2.40;99.90;;;;;;5118273;28;20168;-69
2024/01/30 06:19:53;;;;;;;16.57;13.53;;;2.40;99.90;;;;;;5118010;28;20173;-69
2024/01/30 06:22:19;;;;;;;15.90;13.10;;;2.40;99.90;;;;;;5117101;28;20253;-69
2024/01/30 06:24:48;;;;;;;20.10;14.03;;;2.40;99.90;;;;;;5117984;28;20172;-68
2024/01/30 06:27:15;;;;;;;16.53;13.07;;;2.40;99.90;;;;;;5117829;28;20169;-69
2024/01/30 06:29:42;;;;;;;16.87;13.57;;;2.50;99.90;;;;;;5115926;28;20179;-69
2024/01/30 06:32:08;;;;;;;16.30;13.80;;;2.40;99.90;;;;;;5117214;28;20192;-69
2024/01/30 06:34:34;;;;;;;15.37;13.53;;;2.40;99.90;;;;;;5116984;28;20178;-69
2024/01/30 06:36:59;;;;;;;19.73;13.50;;;2.40;99.90;;;;;;5117412;28;20218;-69
2024/01/30 06:39:26;;;;;;;16.00;13.70;;;2.40;99.90;;;;;;5116241;28;20191;-69
2024/01/30 06:41:52;;;;;;;18.17;13.90;;;2.40;99.90;;;;;;5117495;28;20188;-70
2024/01/30 06:44:18;;;;;;;18.33;13.20;;;2.50;99.90;;;;;;5116745;28;20191;-69
2024/01/30 06:46:43;;;;;;;17.30;13.57;;;2.50;99.90;;;;;;5116403;28;20176;-70
2024/01/30 06:49:09;;;;;;;17.47;13.73;;;2.50;99.90;;;;;;5116078;28;20659;-69
2024/01/30 06:51:35;;;;;;;16.77;13.30;;;2.50;99.90;;;;;;5116386;28;20276;-70
2024/01/30 06:54:01;;;;;;;19.80;15.00;;;2.50;99.90;;;;;;5117270;28;20183;-70
2024/01/30 06:56:27;;;;;;;21.50;14.57;;;2.60;99.90;;;;;;5116803;28;20195;-70
2024/01/30 06:58:53;;;;;;;16.40;13.47;;;2.60;99.90;;;;;;5117019;28;20176;-69
2024/01/30 07:01:20;;;;;;;19.70;14.67;;;2.60;99.90;;;;;;5117481;28;20200;-69
2024/01/30 07:03:46;;;;;;;16.97;13.60;;;2.60;99.90;;;;;;5117145;28;20198;-69
2024/01/30 07:06:12;;;;;;;16.67;13.37;;;2.70;99.90;;;;;;5117490;28;20545;-69
2024/01/30 07:08:41;;;;;;;17.37;13.37;;;2.70;99.90;;;;;;5115829;28;20184;-69
2024/01/30 07:11:07;;;;;;;17.37;13.70;;;2.60;99.90;;;;;;5117327;28;20269;-70
2024/01/30 07:13:34;;;;;;;17.10;13.43;;;2.60;99.90;;;;;;5114971;28;20655;-70
2024/01/30 07:15:59;;;;;;;17.27;13.53;;;2.60;99.90;;;;;;5116860;28;20180;-70
2024/01/30 07:18:25;;;;;;;19.27;13.43;;;2.70;99.90;;;;;;5117242;28;20148;-69
2024/01/30 07:20:51;;;;;;;17.00;13.47;;;2.60;99.90;;;;;;5115301;28;20200;-70
2024/01/30 07:23:17;;;;;;;17.60;14.27;;;2.70;99.90;;;;;;5115556;28;20584;-69
2024/01/30 07:25:49;;;;;;;16.30;14.47;;;2.80;99.90;;;;;;5116234;28;20256;-70
2024/01/30 07:28:18;;;;;;;14.67;13.17;;;2.80;99.90;;;;;;5117987;28;20176;-69
2024/01/30 07:30:44;;;;;;;17.27;13.60;;;2.90;99.90;;;;;;5118398;28;20227;-70
2024/01/30 07:33:10;;;;;;;17.80;13.80;;;2.90;99.90;;;;;;5117357;28;20180;-69
2024/01/30 07:35:36;;;;;;;17.77;14.07;;;3.00;99.90;;;;;;5117013;28;20186;-69
2024/01/30 07:38:02;;;;;;;19.43;13.83;;;3.00;99.90;;;;;;5115638;28;20225;-69
2024/01/30 07:40:29;;;;;;;17.70;14.40;;;3.10;99.90;;;;;;5115440;28;20180;-67
2024/01/30 07:42:56;;;;;;;17.20;14.60;;;3.10;99.90;;;;;;5115573;28;20185;-68
2024/01/30 07:45:24;;;;;;;16.87;14.30;;;3.10;99.90;;;;;;5115182;28;20573;-69
2024/01/30 07:47:51;;;;;;;19.40;15.10;;;3.10;99.90;;;;;;5116584;28;20233;-68
2024/01/30 07:50:17;;;;;;;18.70;14.57;;;3.20;99.90;;;;;;5114742;28;20204;-67
2024/01/30 07:52:43;;;;;;;18.67;15.27;;;3.20;99.90;;;;;;5116049;28;20220;-69
2024/01/30 07:55:51;;;;;;;21.97;15.60;;;3.20;99.90;;;;;;5114869;28;20271;-68
2024/01/30 07:58:17;;;;;;;21.43;15.63;;;3.30;99.90;;;;;;5094183;28;20223;-69
2024/01/30 08:00:43;;;;;;;22.20;15.50;;;3.30;99.90;;;;;;5116175;28;20192;-68
2024/01/30 08:03:09;;;;;;;17.03;15.00;;;3.40;99.90;;;;;;5116141;28;20353;-69
2024/01/30 08:05:35;;;;;;;22.90;16.03;;;3.40;99.90;;;;;;5114475;28;20180;-68
2024/01/30 08:08:00;;;;;;;21.67;16.23;;;3.40;99.90;;;;;;5115378;28;20199;-68
2024/01/30 08:10:26;;;;;;;22.67;15.90;;;3.50;99.90;;;;;;5115976;28;20203;-69
2024/01/30 08:12:53;;;;;;;18.77;15.37;;;3.50;99.90;;;;;;5116172;28;20157;-69
2024/01/30 08:15:19;;;;;;;20.80;16.20;;;3.60;99.90;;;;;;5113716;28;20558;-70
2024/01/30 08:17:45;;;;;;;18.90;15.27;;;3.60;99.90;;;;;;5115336;28;20168;-70
2024/01/30 08:20:11;;;;;;;20.13;15.80;;;3.70;99.90;;;;;;5113602;28;20168;-70
2024/01/30 08:22:40;;;;;;;21.00;15.23;;;3.70;99.90;;;;;;5113357;28;20283;-70
2024/01/30 08:25:07;;;;;;;21.77;15.43;;;3.80;99.90;;;;;;5114022;28;20203;-69
2024/01/30 08:27:35;;;;;;;19.63;14.83;;;3.90;99.90;;;;;;5115077;28;20709;-70
2024/01/30 08:30:01;;;;;;;21.13;15.93;;;3.90;99.90;;;;;;5113879;28;20203;-70
2024/01/30 08:32:27;;;;;;;21.27;15.57;;;4.00;99.90;;;;;;5115171;28;20191;-70
2024/01/30 08:34:53;;;;;;;20.60;14.57;;;4.10;99.90;;;;;;5115302;28;20191;-70
2024/01/30 08:37:18;;;;;;;20.10;15.03;;;4.20;99.90;;;;;;5114746;28;20177;-70
2024/01/30 08:39:44;;;;;;;23.67;15.37;;;4.30;99.90;;;;;;5114903;28;20698;-70
2024/01/30 08:42:10;;;;;;;19.60;14.70;;;4.40;99.90;;;;;;5115473;28;20654;-70
2024/01/30 08:44:36;;;;;;;18.33;14.77;;;4.50;99.90;;;;;;5114996;28;20641;-70
2024/01/30 08:47:03;;;;;;;20.27;15.17;;;4.60;99.90;;;;;;5115390;28;20571;-70
2024/01/30 08:49:28;;;;;;;19.27;14.03;;;4.70;99.90;;;;;;5115381;28;20175;-70
2024/01/30 08:51:54;;;;;;;20.67;14.90;;;4.70;99.90;;;;;;5112638;28;20212;-68
2024/01/30 08:54:20;;;;;;;18.93;14.43;;;4.80;99.90;;;;;;5114835;28;20176;-68
2024/01/30 08:56:46;;;;;;;17.23;14.20;;;4.80;99.90;;;;;;5115449;28;20172;-68
2024/01/30 08:59:11;;;;;;;18.57;14.57;;;4.90;99.90;;;;;;5113059;28;20180;-68
2024/01/30 09:01:37;;;;;;;22.33;14.73;;;5.00;99.90;;;;;;5114209;28;20199;-68
2024/01/30 09:04:03;;;;;;;21.00;13.77;;;5.00;99.90;;;;;;5115062;28;20187;-68
2024/01/30 09:06:29;;;;;;;17.17;13.30;;;5.00;99.90;;;;;;5112756;28;20267;-68
2024/01/30 09:08:55;;;;;;;17.83;13.20;;;5.10;99.90;;;;;;5112713;28;20180;-68
2024/01/30 09:11:20;;;;;;;18.47;13.47;;;5.10;99.90;;;;;;5114163;28;20265;-68
2024/01/30 09:13:46;;;;;;;15.87;13.70;;;5.20;99.90;;;;;;5114351;28;20199;-68
2024/01/30 09:16:12;;;;;;;17.07;14.33;;;5.30;99.90;;;;;;5115063;28;20247;-68
2024/01/30 09:18:38;;;;;;;15.10;13.50;;;5.30;99.90;;;;;;5115018;28;20161;-68
2024/01/30 09:21:04;;;;;;;15.37;13.23;;;5.40;99.90;;;;;;5113768;28;20718;-68
2024/01/30 09:23:30;;;;;;;18.60;14.13;;;5.50;99.90;;;;;;5114274;28;20203;-68
2024/01/30 09:25:56;;;;;;;16.07;13.47;;;5.60;99.90;;;;;;5114421;28;20629;-68
2024/01/30 09:28:22;;;;;;;19.13;12.13;;;5.70;99.90;;;;;;5114346;28;20176;-68
2024/01/30 09:30:47;;;;;;;14.03;11.90;;;5.80;99.90;;;;;;5114733;28;20218;-68
2024/01/30 09:33:13;;;;;;;18.50;12.83;;;5.90;99.90;;;;;;5112954;28;20203;-68
2024/01/30 09:35:39;;;;;;;15.77;12.90;;;6.00;99.90;;;;;;5114017;28;20177;-67
2024/01/30 09:38:05;;;;;;;15.80;12.17;;;6.10;99.90;;;;;;5114184;28;20183;-68
2024/01/30 09:40:30;;;;;;;17.83;12.10;;;6.40;99.90;;;;;;5112189;28;20564;-68
2024/01/30 09:42:59;;;;;;;13.17;11.40;;;6.90;99.90;;;;;;5114612;28;20176;-68
2024/01/30 09:45:26;;;;;;;14.83;10.77;;;7.40;99.90;;;;;;5113835;28;20687;-68
2024/01/30 09:47:52;;;;;;;15.37;11.93;;;7.70;99.90;;;;;;5114027;28;20176;-68
2024/01/30 09:50:19;;;;;;;13.47;11.03;;;8.10;99.90;;;;;;5114255;28;20248;-68
2024/01/30 09:52:47;;;;;;;13.50;10.30;;;8.50;99.90;;;;;;5112611;28;20287;-68
2024/01/30 09:55:13;;;;;;;12.07;10.57;;;8.80;99.90;;;;;;5114092;28;20225;-68
2024/01/30 09:57:39;;;;;;;10.93;9.83;;;9.10;99.90;;;;;;5114699;28;20165;-68
2024/01/30 10:00:08;;;;;;;11.97;9.27;;;9.30;99.90;;;;;;5112212;28;20651;-67
2024/01/30 10:02:35;;;;;;;12.30;9.13;;;9.50;99.90;;;;;;5112656;28;20212;-68
2024/01/30 10:05:01;;;;;;;15.17;9.90;;;9.60;99.90;;;;;;5113958;28;20196;-68
2024/01/30 10:07:27;;;;;;;12.03;8.93;;;9.70;99.90;;;;;;5113870;28;20244;-68
2024/01/30 10:09:53;;;;;;;12.83;9.67;;;9.80;99.90;;;;;;5112737;28;20641;-68
2024/01/30 10:12:19;;;;;;;14.27;9.05;;;9.80;99.90;;;;;;5112739;28;20287;-68
2024/01/30 10:14:45;;;;;;;12.17;8.70;;;9.90;99.90;;;;;;5112617;28;20212;-68
2024/01/30 10:17:12;;;;;;;12.55;8.63;;;9.90;99.90;;;;;;5114100;28;20181;-68
2024/01/30 10:19:41;;;;;;;12.18;8.55;;;10.00;99.90;;;;;;5113754;28;20256;-68
2024/01/30 10:22:09;;;;;;;13.23;9.20;;;10.00;99.90;;;;;;5113098;28;20559;-68
2024/01/30 10:24:35;;;;;;;11.73;9.00;;;10.10;99.90;;;;;;5113635;28;20215;-69
2024/01/30 10:27:01;;;;;;;9.23;8.02;;;10.20;99.90;;;;;;5114122;28;20661;-69
2024/01/30 10:29:28;;;;;;;14.90;9.35;;;10.20;99.90;;;;;;5112480;28;20181;-68
2024/01/30 10:32:05;;;;;;;10.85;8.25;;;10.20;99.90;;;;;;5116444;28;20200;-68
2024/01/30 10:34:32;;;;;;;12.35;8.10;;;10.20;99.90;;;;;;5116084;28;20202;-71
2024/01/30 10:37:12;;;;;;;9.02;7.85;;;10.20;99.90;;;;;;5117553;28;20173;-68
2024/01/30 10:39:39;;;;;;;9.27;7.90;;;10.20;99.90;;;;;;5116532;28;20164;-68
2024/01/30 10:42:06;;;;;;;10.00;8.20;;;10.30;99.90;;;;;;5117707;28;20192;-68
2024/01/30 10:44:59;;;;;;;9.77;8.45;;;10.30;99.90;;;;;;5117443;28;20252;-68
2024/01/30 10:47:27;;;;;;;10.05;8.48;;;10.30;99.90;;;;;;5117634;28;20187;-68
2024/01/30 10:49:54;;;;;;;10.63;8.80;;;10.30;99.90;;;;;;5116017;28;20184;-68
2024/01/30 10:52:21;;;;;;;12.30;8.40;;;10.40;99.90;;;;;;5116922;28;20237;-68
2024/01/30 10:54:47;;;;;;;10.52;8.80;;;10.50;99.90;;;;;;5117431;28;20634;-70
2024/01/30 10:57:15;;;;;;;12.65;9.80;;;10.60;99.90;;;;;;5115930;28;20523;-70
2024/01/30 10:59:42;;;;;;;11.40;8.35;;;10.60;99.90;;;;;;5117292;28;20669;-70
2024/01/30 11:02:10;;;;;;;10.75;8.38;;;10.60;99.90;;;;;;5117283;28;20212;-70
2024/01/30 11:04:41;;;;;;;10.68;8.55;;;10.70;99.90;;;;;;5117653;28;20164;-70
2024/01/30 11:07:25;;;;;;;13.45;8.23;;;10.70;99.90;;;;;;5115847;28;20230;-67
2024/01/30 11:09:57;;;;;;;11.18;7.80;;;10.70;99.90;;;;;;5115793;28;20702;-68
2024/01/30 11:12:27;;;;;;;11.85;7.82;;;10.80;99.90;;;;;;5117134;28;20768;-68
2024/01/30 11:15:07;;;;;;;10.50;8.45;;;10.90;99.90;;;;;;5116858;28;20225;-68
2024/01/30 11:17:48;;;;;;;12.35;8.23;;;11.00;99.90;;;;;;5116628;28;20177;-68
2024/01/30 11:20:16;;;;;;;11.27;7.18;;;11.20;99.90;;;;;;5116829;28;20157;-68
2024/01/30 11:22:44;;;;;;;11.88;7.63;;;11.30;99.90;;;;;;5116489;28;20188;-67
2024/01/30 11:25:14;;;;;;;8.73;7.43;;;11.40;99.90;;;;;;5116624;28;20176;-67
2024/01/30 11:27:42;;;;;;;11.90;8.23;;;11.60;99.90;;;;;;5116791;28;20173;-68
2024/01/30 11:30:08;;;;;;;10.80;7.13;;;11.80;99.90;;;;;;5116595;28;20262;-68
2024/01/30 11:32:34;;;;;;;12.40;8.30;;;12.00;99.90;;;;;;5116544;28;20196;-67
2024/01/30 11:35:00;;;;;;;11.90;7.78;;;12.00;7.30;;;;;;5116731;28;20184;-68
2024/01/30 11:37:27;;;;;;;11.20;7.60;;;12.10;1.00;;;;;;5116194;28;20187;-67
2024/01/30 11:39:54;;;;;;;13.57;7.80;;;12.30;1.00;;;;;;5115641;28;20677;-68
2024/01/30 11:42:21;;;;;;;11.02;7.50;;;12.50;1.00;;;;;;5114417;28;20245;-68
2024/01/30 11:44:50;;;;;;;12.00;8.00;;;12.60;1.00;;;;;;5116694;28;20263;-68
2024/01/30 11:47:16;;;;;;;12.93;8.30;;;12.70;1.00;;;;;;5114982;28;20180;-68
2024/01/30 11:49:43;;;;;;;12.88;7.80;;;12.70;1.00;;;;;;5114852;28;20172;-68
2024/01/30 11:52:09;;;;;;;14.40;7.95;;;12.70;1.00;;;;;;5115716;28;20278;-69
2024/01/30 11:54:35;;;;;;;10.90;7.57;;;12.80;1.00;;;;;;5115048;28;20710;-69
2024/01/30 11:57:01;;;;;;;10.57;7.25;;;12.90;1.00;;;;;;5116330;28;20294;-68
2024/01/30 11:59:27;;;;;;;9.65;7.10;;;13.00;1.00;;;;;;5116471;27;20184;-68
2024/01/30 12:01:52;;;;;;;11.02;7.60;;;13.00;1.00;;;;;;5114511;28;20219;-68
2024/01/30 12:04:18;;;;;;;12.10;7.53;;;13.00;1.00;;;;;;5116597;27;20169;-68
2024/01/30 12:06:44;;;;;;;11.48;7.53;;;13.00;1.00;;;;;;5115514;28;20229;-68
2024/01/30 12:09:12;;;;;;;11.88;7.68;;;13.00;1.00;;;;;;5115716;28;20552;-68
2024/01/30 12:11:48;;;;;;;14.23;7.65;;;13.00;1.00;;;;;;5114343;28;20209;-68
2024/01/30 12:14:15;;;;;;;12.43;7.82;;;12.80;1.00;;;;;;5114386;28;20179;-68
2024/01/30 12:16:41;;;;;;;14.57;7.55;;;12.70;1.00;;;;;;5114401;28;20272;-68
2024/01/30 12:19:07;;;;;;;12.18;7.47;;;12.60;1.00;;;;;;5115820;28;20173;-68
2024/01/30 12:21:34;;;;;;;13.73;8.02;;;12.60;1.00;;;;;;5113984;28;20581;-68
2024/01/30 12:24:00;;;;;;;11.73;7.43;;;12.50;1.00;;;;;;5113641;28;20179;-68
2024/01/30 12:26:26;;;;;;;11.07;7.70;;;12.40;1.00;;;;;;5115124;28;20604;-68
2024/01/30 12:28:55;;;;;;;12.32;7.53;;;12.40;1.00;;;;;;5115496;28;20179;-68
2024/01/30 12:31:28;;;;;;;11.07;7.82;;;12.50;1.00;;;;;;5115631;28;20606;-68
2024/01/30 12:33:55;;;;;;;13.70;8.30;;;12.50;1.00;;;;;;5115542;28;20247;-68
2024/01/30 12:36:22;;;;;;;11.50;8.18;;;12.60;1.00;;;;;;5114968;28;20672;-67